Time;durP1;ratioP1;P1;durP2;ratioP2;P2;SDS_P1;SDS_P2;PMS_P1;PMS_P2;Temp;Humidity;BMP_temperature;BMP_pressure;BME280_temperature;BME280_humidity;BME280_pressure;Samples;Min_cycle;Max_cycle;Signal;HPM_P1;HPM_P2
2024/02/23 00:02:06;;;;;;;11.00;7.60;;;;;;;8.57;100.00;98546.33;105640;1260;99042;-79
2024/02/23 00:04:52;;;;;;;14.00;7.80;;;;;;;8.58;100.00;98544.36;105565;1257;98353;-77
2024/02/23 00:07:38;;;;;;;10.20;7.50;;;;;;;8.57;100.00;98543.75;105597;1257;97369;-77
2024/02/23 00:10:23;;;;;;;10.30;7.90;;;;;;;8.56;100.00;98548.31;105661;1259;96517;-77
2024/02/23 00:13:09;;;;;;;11.80;7.90;;;;;;;8.54;100.00;98546.73;105501;1258;101412;-77
2024/02/23 00:15:54;;;;;;;11.20;7.80;;;;;;;8.54;100.00;98548.95;105548;1259;99258;-77
2024/02/23 00:18:40;;;;;;;12.10;8.10;;;;;;;8.53;100.00;98549.67;105579;1256;97740;-78
2024/02/23 00:21:26;;;;;;;12.60;8.00;;;;;;;8.52;100.00;98548.07;105592;1270;96608;-77
2024/02/23 00:24:11;;;;;;;12.80;7.50;;;;;;;8.53;100.00;98552.04;105567;1260;96594;-78
2024/02/23 00:26:58;;;;;;;10.50;7.20;;;;;;;8.54;100.00;98546.83;105643;1258;99985;-77
2024/02/23 00:29:44;;;;;;;11.30;7.50;;;;;;;8.53;100.00;98546.02;105646;1259;99869;-77
2024/02/23 00:32:29;;;;;;;10.90;7.70;;;;;;;8.52;100.00;98539.52;105682;1259;97724;-78
2024/02/23 00:35:16;;;;;;;10.80;7.70;;;;;;;8.53;100.00;98536.80;105620;1259;96537;-77
2024/02/23 00:38:01;;;;;;;10.60;7.30;;;;;;;8.53;100.00;98532.55;105560;1258;96710;-78
2024/02/23 00:40:47;;;;;;;10.70;7.60;;;;;;;8.53;100.00;98529.87;105585;1257;100170;-77
2024/02/23 00:43:41;;;;;;;11.20;7.20;;;;;;;8.53;100.00;98527.21;105608;1270;100914;-78
2024/02/23 00:46:27;;;;;;;10.70;7.10;;;;;;;8.53;100.00;98524.29;105531;1256;97881;-78
2024/02/23 00:49:12;;;;;;;12.60;7.50;;;;;;;8.52;100.00;98519.09;105516;1259;97556;-77
2024/02/23 00:51:58;;;;;;;10.70;7.20;;;;;;;8.52;100.00;98511.66;105553;1259;97103;-77
2024/02/23 00:54:43;;;;;;;8.90;6.20;;;;;;;8.51;100.00;98508.47;105670;1256;101266;-77
2024/02/23 00:57:29;;;;;;;10.20;6.60;;;;;;;8.51;100.00;98505.48;105639;1256;100304;-78
2024/02/23 01:00:15;;;;;;;9.00;6.60;;;;;;;8.51;100.00;98503.14;105640;1259;97865;-78
2024/02/23 01:03:01;;;;;;;9.90;7.20;;;;;;;8.52;100.00;98500.77;105532;1268;97652;-77
2024/02/23 01:05:47;;;;;;;11.60;6.80;;;;;;;8.52;100.00;98497.79;105562;1259;96795;-79
2024/02/23 01:08:32;;;;;;;9.50;6.70;;;;;;;8.52;100.00;98497.05;105621;1260;100153;-78
2024/02/23 01:11:18;;;;;;;8.30;6.10;;;;;;;8.52;100.00;98491.71;105664;1257;99094;-78
2024/02/23 01:14:04;;;;;;;9.90;6.80;;;;;;;8.52;100.00;98494.20;105517;1259;97729;-78
2024/02/23 01:16:49;;;;;;;10.90;6.20;;;;;;;8.52;100.00;98494.09;105462;1256;97803;-78
2024/02/23 01:19:35;;;;;;;10.10;6.90;;;;;;;8.53;100.00;98496.42;105650;1259;97144;-77
2024/02/23 01:22:20;;;;;;;8.90;6.80;;;;;;;8.53;100.00;98497.27;105750;1270;100063;-77
2024/02/23 01:25:06;;;;;;;8.10;6.30;;;;;;;8.51;100.00;98499.48;105610;1261;99076;-78
2024/02/23 01:27:51;;;;;;;8.90;5.90;;;;;;;8.50;100.00;98499.33;105548;1260;97706;-78
2024/02/23 01:30:37;;;;;;;9.00;6.90;;;;;;;8.50;100.00;98499.73;105528;1260;97827;-78
2024/02/23 01:33:22;;;;;;;8.80;6.10;;;;;;;8.50;100.00;98498.83;105650;1260;97138;-77
2024/02/23 01:36:08;;;;;;;10.70;6.40;;;;;;;8.50;100.00;98496.01;105577;1257;100924;-79
2024/02/23 01:38:53;;;;;;;8.30;5.80;;;;;;;8.50;100.00;98496.65;105535;1263;99178;-77
2024/02/23 01:41:39;;;;;;;8.10;6.10;;;;;;;8.51;100.00;98495.05;105499;1267;99055;-79
2024/02/23 01:44:25;;;;;;;8.20;6.10;;;;;;;8.51;100.00;98493.28;105524;1260;96598;-78
2024/02/23 01:47:11;;;;;;;11.60;7.00;;;;;;;8.52;100.00;98492.49;105577;1258;96521;-77
2024/02/23 01:50:00;;;;;;;9.80;6.00;;;;;;;8.52;100.00;98492.02;105563;1267;100907;-77
2024/02/23 01:52:45;;;;;;;7.90;5.90;;;;;;;8.54;100.00;98487.42;106403;1260;99067;-76
2024/02/23 01:55:32;;;;;;;7.50;5.80;;;;;;;8.54;100.00;98489.30;105511;1260;97728;-77
2024/02/23 01:58:19;;;;;;;8.70;5.80;;;;;;;8.54;100.00;98488.48;105802;1255;96531;-78
2024/02/23 02:01:04;;;;;;;9.80;6.40;;;;;;;8.54;100.00;98485.29;105590;1260;97036;-78
2024/02/23 02:03:49;;;;;;;7.30;5.40;;;;;;;8.53;100.00;98483.81;105305;1267;101246;-76
2024/02/23 02:06:36;;;;;;;8.00;6.20;;;;;;;8.53;100.00;98481.98;105500;1264;100346;-79
2024/02/23 02:09:21;;;;;;;8.90;6.30;;;;;;;8.53;100.00;98480.16;105669;1257;97713;-78
2024/02/23 02:12:07;;;;;;;8.60;6.20;;;;;;;8.54;100.00;98479.33;105770;1257;96610;-78
2024/02/23 02:14:54;;;;;;;11.10;7.20;;;;;;;8.56;100.00;98474.66;105738;1262;96581;-79
2024/02/23 02:17:40;;;;;;;8.60;5.80;;;;;;;8.56;100.00;98470.89;105717;1260;101387;-78
2024/02/23 02:20:28;;;;;;;10.10;5.50;;;;;;;8.56;100.00;98468.21;105701;1260;99104;-78
2024/02/23 02:23:14;;;;;;;8.80;5.90;;;;;;;8.56;100.00;98469.54;105482;1268;197448;-79
2024/02/23 02:26:00;;;;;;;8.70;5.50;;;;;;;8.54;100.00;98471.00;105591;1269;97529;-78
2024/02/23 02:28:47;;;;;;;7.60;5.80;;;;;;;8.53;100.00;98470.40;105544;1269;97097;-77
2024/02/23 02:31:36;;;;;;;8.00;5.50;;;;;;;8.55;100.00;98468.94;105346;1270;101180;-78
2024/02/23 02:34:22;;;;;;;6.60;5.40;;;;;;;8.59;100.00;98468.72;105212;1260;100405;-78
2024/02/23 02:37:08;;;;;;;8.00;5.30;;;;;;;8.61;100.00;98471.28;105499;1270;97866;-78
2024/02/23 02:39:54;;;;;;;8.30;5.40;;;;;;;8.62;100.00;98469.98;105579;1262;96943;-78
2024/02/23 02:42:39;;;;;;;7.70;5.60;;;;;;;8.63;100.00;98471.13;105529;1261;98288;-79
2024/02/23 02:45:25;;;;;;;8.10;6.40;;;;;;;8.64;100.00;98472.98;105580;1270;101169;-78
2024/02/23 02:48:10;;;;;;;8.30;5.80;;;;;;;8.64;100.00;98475.75;105738;1260;100273;-79
2024/02/23 02:50:56;;;;;;;9.10;6.00;;;;;;;8.63;100.00;98476.95;105527;1260;97695;-77
2024/02/23 02:53:41;;;;;;;8.30;6.00;;;;;;;8.62;100.00;98479.27;105594;1262;96732;-78
2024/02/23 02:56:27;;;;;;;8.40;5.80;;;;;;;8.62;100.00;98480.10;105674;1259;96630;-79
2024/02/23 02:59:13;;;;;;;9.10;6.10;;;;;;;8.60;100.00;98479.54;105611;1261;100034;-77
2024/02/23 03:01:58;;;;;;;10.10;6.30;;;;;;;8.59;100.00;98481.85;105569;1257;99856;-77
2024/02/23 03:04:48;;;;;;;12.10;6.30;;;;;;;8.58;100.00;98482.85;105585;1257;97724;-78
2024/02/23 03:07:33;;;;;;;7.10;5.50;;;;;;;8.57;100.00;98486.06;105636;1260;96610;-79
2024/02/23 03:10:19;;;;;;;10.10;5.50;;;;;;;8.55;100.00;98484.36;105528;1259;97115;-77
2024/02/23 03:13:04;;;;;;;9.20;6.30;;;;;;;8.54;100.00;98487.36;105572;1259;100312;-78
2024/02/23 03:15:50;;;;;;;7.90;5.30;;;;;;;8.53;100.00;98487.79;105541;1262;99823;-77
2024/02/23 03:18:35;;;;;;;10.30;6.20;;;;;;;8.53;100.00;98490.70;105540;1259;97756;-78
2024/02/23 03:21:21;;;;;;;10.40;5.40;;;;;;;8.52;100.00;98491.86;105580;1260;96600;-78
2024/02/23 03:24:06;;;;;;;7.10;5.90;;;;;;;8.52;100.00;98497.41;105510;1260;97509;-77
2024/02/23 03:26:52;;;;;;;7.80;5.50;;;;;;;8.51;100.00;98499.48;105720;1260;101239;-78
2024/02/23 03:29:39;;;;;;;8.50;5.80;;;;;;;8.50;100.00;98501.41;105622;1258;100156;-77
2024/02/23 03:32:24;;;;;;;7.20;5.60;;;;;;;8.49;100.00;98504.80;105526;1260;97722;-77
2024/02/23 03:35:10;;;;;;;9.30;5.80;;;;;;;8.48;100.00;98507.56;105591;1257;96551;-78
2024/02/23 03:37:55;;;;;;;8.70;6.00;;;;;;;8.47;100.00;98506.51;105575;1260;97278;-78
2024/02/23 03:40:42;;;;;;;8.60;5.70;;;;;;;8.46;100.00;98508.94;105572;1259;100040;-78
2024/02/23 03:43:27;;;;;;;9.70;6.20;;;;;;;8.47;100.00;98513.54;105665;1258;99282;-78
2024/02/23 03:46:14;;;;;;;8.70;5.70;;;;;;;8.46;100.00;98514.64;105641;1257;99005;-78
2024/02/23 03:49:00;;;;;;;6.70;5.80;;;;;;;8.45;100.00;98514.08;105540;1261;96662;-78
2024/02/23 03:51:46;;;;;;;8.70;6.70;;;;;;;8.45;100.00;98514.55;105658;1260;98384;-78
2024/02/23 03:54:32;;;;;;;8.60;6.10;;;;;;;8.44;100.00;98516.27;105632;1261;101182;-77
2024/02/23 03:57:17;;;;;;;10.40;6.60;;;;;;;8.43;100.00;98516.25;105764;1260;99713;-78
2024/02/23 04:00:04;;;;;;;8.10;6.60;;;;;;;8.42;100.00;98519.25;105697;1260;97747;-77
2024/02/23 04:02:57;;;;;;;9.00;6.60;;;;;;;8.40;100.00;98520.29;105696;1267;96835;-77
2024/02/23 04:05:43;;;;;;;12.50;7.00;;;;;;;8.40;100.00;98521.77;105636;1259;97029;-77
2024/02/23 04:08:28;;;;;;;8.80;5.80;;;;;;;8.40;100.00;98522.23;105605;1263;101034;-78
2024/02/23 04:11:14;;;;;;;9.60;7.00;;;;;;;8.39;100.00;98521.52;105617;1261;100593;-78
2024/02/23 04:14:00;;;;;;;10.00;6.70;;;;;;;8.38;100.00;98524.02;105639;1259;98750;-78
2024/02/23 04:16:46;;;;;;;8.70;6.40;;;;;;;8.39;100.00;98527.77;105613;1257;96617;-78
2024/02/23 04:19:31;;;;;;;9.80;5.90;;;;;;;8.38;100.00;98527.20;106249;1260;97041;-78
2024/02/23 04:22:17;;;;;;;8.10;6.30;;;;;;;8.38;100.00;98531.69;105567;1265;99992;-80
2024/02/23 04:25:03;;;;;;;8.10;6.20;;;;;;;8.39;100.00;98532.18;105643;1257;99195;-79
2024/02/23 04:27:48;;;;;;;9.50;6.30;;;;;;;8.39;100.00;98533.90;105676;1257;98975;-80
2024/02/23 04:30:33;;;;;;;6.70;5.10;;;;;;;8.39;100.00;98534.75;105752;1258;97503;-77
2024/02/23 04:33:19;;;;;;;6.70;5.40;;;;;;;8.39;100.00;98536.14;105689;1260;98328;-77
2024/02/23 04:36:06;;;;;;;9.40;6.10;;;;;;;8.39;100.00;98540.09;105674;1258;101333;-78
2024/02/23 04:38:52;;;;;;;8.80;6.00;;;;;;;8.39;100.00;98545.08;105767;1258;99254;-77
2024/02/23 04:41:37;;;;;;;7.10;5.40;;;;;;;8.39;100.00;98545.59;105628;1257;97751;-79
2024/02/23 04:44:23;;;;;;;9.00;5.90;;;;;;;8.39;100.00;98544.84;105797;1261;96841;-78
2024/02/23 04:47:08;;;;;;;8.80;6.30;;;;;;;8.40;100.00;98546.20;105780;1257;97238;-78
2024/02/23 04:49:54;;;;;;;6.80;5.50;;;;;;;8.41;100.00;98547.51;106281;1258;101343;-79
2024/02/23 04:52:40;;;;;;;9.90;6.30;;;;;;;8.41;100.00;98551.52;105712;1257;100399;-81
2024/02/23 04:55:25;;;;;;;9.00;6.20;;;;;;;8.41;100.00;98554.14;106347;1259;97935;-79
2024/02/23 04:58:11;;;;;;;11.10;5.70;;;;;;;8.42;100.00;98558.01;106322;1260;96603;-79
2024/02/23 05:00:57;;;;;;;9.90;5.90;;;;;;;8.42;100.00;98559.93;106327;1260;97059;-79
2024/02/23 05:03:43;;;;;;;8.10;5.30;;;;;;;8.42;100.00;98558.70;106323;1256;100029;-79
2024/02/23 05:06:29;;;;;;;9.20;5.40;;;;;;;8.43;100.00;98562.10;105812;1257;100346;-79
2024/02/23 05:09:15;;;;;;;8.80;5.80;;;;;;;8.43;100.00;98563.85;106448;1259;98323;-79
2024/02/23 05:12:00;;;;;;;9.80;6.40;;;;;;;8.42;100.00;98567.35;105808;1260;96600;-79
2024/02/23 05:14:46;;;;;;;9.30;5.80;;;;;;;8.40;100.00;98570.66;105841;1260;96642;-78
2024/02/23 05:17:31;;;;;;;6.90;5.70;;;;;;;8.39;100.00;98574.57;105789;1256;100195;-76
2024/02/23 05:20:17;;;;;;;12.90;5.90;;;;;;;8.39;100.00;98578.55;105780;1259;99227;-78
2024/02/23 05:23:04;;;;;;;9.50;6.10;;;;;;;8.38;100.00;98577.36;105777;1260;99000;-79
2024/02/23 05:25:49;;;;;;;10.50;6.50;;;;;;;8.38;100.00;98578.80;105671;1260;97249;-79
2024/02/23 05:28:34;;;;;;;8.20;6.00;;;;;;;8.38;100.00;98579.42;105702;1260;96582;-78
2024/02/23 05:31:20;;;;;;;10.50;6.50;;;;;;;8.37;100.00;98583.25;105618;1256;99977;-77
2024/02/23 05:34:06;;;;;;;8.70;6.40;;;;;;;8.37;100.00;98586.33;105613;1258;99078;-78
2024/02/23 05:36:51;;;;;;;10.00;6.70;;;;;;;8.36;100.00;98591.80;105660;1256;97758;-79
2024/02/23 05:39:37;;;;;;;10.60;7.20;;;;;;;8.35;100.00;98593.70;105756;1257;96606;-79
2024/02/23 05:42:23;;;;;;;12.70;6.20;;;;;;;8.35;100.00;98594.33;105862;1255;96418;-79
2024/02/23 05:45:09;;;;;;;8.30;6.50;;;;;;;8.34;100.00;98600.64;105663;1257;99992;-78
2024/02/23 05:47:54;;;;;;;9.50;6.90;;;;;;;8.33;100.00;98599.88;106329;1257;99064;-79
2024/02/23 05:50:39;;;;;;;11.10;6.30;;;;;;;8.33;100.00;98603.45;105743;1259;97734;-78
2024/02/23 05:53:25;;;;;;;11.00;6.80;;;;;;;8.32;100.00;98606.45;105588;1258;96783;-78
2024/02/23 05:56:10;;;;;;;8.50;6.40;;;;;;;8.32;100.00;98612.15;105622;1256;97203;-78
2024/02/23 05:58:55;;;;;;;9.50;6.40;;;;;;;8.32;100.00;98614.08;105879;1256;100047;-79
2024/02/23 06:01:41;;;;;;;10.40;6.90;;;;;;;8.31;100.00;98621.27;105964;1257;99164;-79
2024/02/23 06:04:27;;;;;;;10.40;6.60;;;;;;;8.30;100.00;98624.61;105686;1269;97737;-78
2024/02/23 06:07:15;;;;;;;13.90;6.80;;;;;;;8.30;100.00;98626.53;105518;1261;96613;-79
2024/02/23 06:10:01;;;;;;;9.30;6.20;;;;;;;8.30;100.00;98631.38;105765;1261;97214;-78
2024/02/23 06:12:46;;;;;;;9.50;6.70;;;;;;;8.30;100.00;98634.13;105589;1260;100736;-78
2024/02/23 06:15:32;;;;;;;8.60;6.20;;;;;;;8.30;100.00;98639.90;105581;1258;99088;-78
2024/02/23 06:18:17;;;;;;;10.60;6.60;;;;;;;8.30;100.00;98644.76;105602;1259;97726;-78
2024/02/23 06:21:10;;;;;;;10.00;6.70;;;;;;;8.30;100.00;98650.25;105576;1260;97192;-77
2024/02/23 06:23:55;;;;;;;8.40;6.20;;;;;;;8.30;100.00;98654.48;105641;1256;97803;-77
2024/02/23 06:26:42;;;;;;;8.90;6.20;;;;;;;8.30;100.00;98659.61;105499;1259;100066;-77
2024/02/23 06:29:27;;;;;;;10.90;7.00;;;;;;;8.31;100.00;98663.88;105614;1255;100029;-78
2024/02/23 06:32:13;;;;;;;8.60;7.00;;;;;;;8.31;100.00;98660.78;105741;1256;97757;-79
2024/02/23 06:34:58;;;;;;;9.20;6.80;;;;;;;8.31;100.00;98660.42;105714;1257;96650;-78
2024/02/23 06:37:44;;;;;;;8.90;7.00;;;;;;;8.31;100.00;98667.93;105617;1257;97167;-78
2024/02/23 06:40:29;;;;;;;12.00;7.40;;;;;;;8.31;100.00;98670.30;105581;1257;101010;-78
2024/02/23 06:43:15;;;;;;;8.50;6.40;;;;;;;8.32;100.00;98672.52;105653;1259;100181;-79
2024/02/23 06:46:07;;;;;;;9.40;7.00;;;;;;;8.32;100.00;98673.38;105565;1256;98388;-78
2024/02/23 06:48:52;;;;;;;9.50;6.60;;;;;;;8.34;100.00;98679.61;105628;1256;96625;-78
2024/02/23 06:51:40;;;;;;;7.60;6.20;;;;;;;8.34;100.00;98684.28;105494;1261;97206;-77
2024/02/23 06:54:26;;;;;;;11.50;7.10;;;;;;;8.35;100.00;98686.37;105390;1256;101285;-77
2024/02/23 06:57:11;;;;;;;11.50;6.90;;;;;;;8.34;100.00;98689.06;105746;1258;99044;-78
2024/02/23 06:59:57;;;;;;;9.10;6.90;;;;;;;8.35;100.00;98694.12;105714;1259;98943;-77
2024/02/23 07:02:43;;;;;;;8.50;6.40;;;;;;;8.37;100.00;98696.94;105512;1257;96786;-79
2024/02/23 07:05:29;;;;;;;9.70;7.60;;;;;;;8.37;100.00;98699.19;105676;1254;97080;-79
2024/02/23 07:08:15;;;;;;;11.10;6.80;;;;;;;8.38;100.00;98705.14;105459;1259;100878;-78
2024/02/23 07:11:01;;;;;;;11.50;7.70;;;;;;;8.38;100.00;98706.15;105481;1257;100222;-78
2024/02/23 07:13:47;;;;;;;12.40;8.40;;;;;;;8.39;100.00;98709.64;105434;1259;98958;-78
2024/02/23 07:16:32;;;;;;;11.10;7.90;;;;;;;8.39;100.00;98713.83;105597;1256;96524;-77
2024/02/23 07:19:19;;;;;;;12.00;9.10;;;;;;;8.41;100.00;98716.44;105694;1259;97026;-78
2024/02/23 07:22:05;;;;;;;11.90;6.70;;;;;;;8.42;100.00;98720.70;105782;1257;101231;-78
2024/02/23 07:24:51;;;;;;;9.50;7.70;;;;;;;8.44;100.00;98728.45;105658;1260;99013;-79
2024/02/23 07:27:36;;;;;;;9.70;7.10;;;;;;;8.45;100.00;98731.63;105728;1255;97706;-79
2024/02/23 07:30:21;;;;;;;9.90;7.80;;;;;;;8.47;100.00;98733.02;105932;1257;96540;-79
2024/02/23 07:33:07;;;;;;;10.90;7.30;;;;;;;8.49;100.00;98739.10;105982;1255;97775;-79
2024/02/23 07:35:52;;;;;;;11.70;7.30;;;;;;;8.51;100.00;98748.78;105951;1256;103345;-79
2024/02/23 07:38:38;;;;;;;11.40;7.80;;;;;;;8.53;100.00;98748.42;105875;1257;99027;-78
2024/02/23 07:41:24;;;;;;;11.00;8.00;;;;;;;8.56;100.00;98754.61;105772;1259;97848;-79
2024/02/23 07:44:09;;;;;;;10.80;7.60;;;;;;;8.59;100.00;98757.09;105743;1260;96889;-79
2024/02/23 07:46:55;;;;;;;10.40;7.30;;;;;;;8.61;100.00;98758.92;105760;1259;97036;-78
2024/02/23 07:49:41;;;;;;;13.30;8.30;;;;;;;8.64;100.00;98766.58;105892;1257;101611;-79
2024/02/23 07:52:26;;;;;;;11.30;8.20;;;;;;;8.66;100.00;98772.63;105899;1259;100549;-78
2024/02/23 07:55:12;;;;;;;9.00;7.10;;;;;;;8.68;100.00;98779.27;105397;1259;97710;-77
2024/02/23 07:58:01;;;;;;;10.20;7.50;;;;;;;8.69;100.00;98783.41;105607;1259;96555;-78
2024/02/23 08:00:47;;;;;;;11.20;7.90;;;;;;;8.70;100.00;98790.33;105745;1256;97238;-80
2024/02/23 08:03:32;;;;;;;11.20;8.10;;;;;;;8.71;100.00;98793.08;106492;1256;99957;-85
2024/02/23 08:06:18;;;;;;;11.20;8.10;;;;;;;8.72;100.00;98791.88;106177;1257;100163;-89
2024/02/23 08:09:04;;;;;;;12.60;8.30;;;;;;;8.73;100.00;98798.93;106331;1256;97836;-85
2024/02/23 08:11:51;;;;;;;10.60;8.60;;;;;;;8.75;100.00;98802.39;106228;1261;96724;-84
2024/02/23 08:14:36;;;;;;;10.60;8.20;;;;;;;8.78;100.00;98806.16;106284;1256;97107;-84
2024/02/23 08:17:22;;;;;;;9.80;7.80;;;;;;;8.80;100.00;98806.35;106459;1256;99933;-85
2024/02/23 08:20:08;;;;;;;14.70;9.10;;;;;;;8.83;100.00;98808.78;106465;1259;99194;-81
2024/02/23 08:22:53;;;;;;;11.00;8.80;;;;;;;8.86;100.00;98811.45;106451;1259;99029;-78
2024/02/23 08:25:39;;;;;;;12.40;9.00;;;;;;;8.92;100.00;98817.81;105712;1258;96625;-77
2024/02/23 08:28:24;;;;;;;12.20;8.40;;;;;;;8.95;100.00;98819.60;105710;1256;96671;-82
2024/02/23 08:31:10;;;;;;;15.40;8.90;;;;;;;8.99;100.00;98820.84;106230;1262;100057;-86
2024/02/23 08:33:56;;;;;;;13.80;8.90;;;;;;;9.03;100.00;98824.78;106195;1262;99231;-85
2024/02/23 08:36:42;;;;;;;13.80;9.10;;;;;;;9.06;100.00;98828.09;106348;1257;99121;-85
2024/02/23 08:39:28;;;;;;;16.90;9.80;;;;;;;9.08;100.00;98827.53;106750;1258;96626;-87
2024/02/23 08:42:23;;;;;;;14.20;9.00;;;;;;;9.11;100.00;98829.02;106384;1257;98287;-86
2024/02/23 08:45:12;;;;;;;10.10;8.50;;;;;;;9.14;100.00;98840.98;106300;1260;100035;-83
2024/02/23 08:48:05;;;;;;;12.60;8.80;;;;;;;9.18;100.00;98844.45;106098;1257;100026;-83
2024/02/23 08:50:53;;;;;;;11.80;8.60;;;;;;;9.22;100.00;98847.78;106110;1262;97721;-86
2024/02/23 08:53:41;;;;;;;13.80;9.40;;;;;;;9.25;100.00;98852.64;106387;1255;96620;-84
2024/02/23 08:56:27;;;;;;;12.90;9.20;;;;;;;9.28;100.00;98854.24;106321;1260;96613;-88
2024/02/23 08:59:14;;;;;;;12.60;8.60;;;;;;;9.34;100.00;98856.70;106805;1259;101294;-87
2024/02/23 09:02:00;;;;;;;11.20;8.70;;;;;;;9.38;100.00;98858.05;106469;1259;99958;-80
2024/02/23 09:04:46;;;;;;;12.50;8.70;;;;;;;9.43;100.00;98859.73;107501;1254;97853;-79
2024/02/23 09:07:32;;;;;;;11.60;9.20;;;;;;;9.47;100.00;98867.18;106326;1256;96602;-80
2024/02/23 09:10:17;;;;;;;12.40;9.70;;;;;;;9.51;100.00;98868.33;106199;1259;96495;-79
2024/02/23 09:13:04;;;;;;;12.30;8.70;;;;;;;9.55;100.00;98875.03;106647;1256;100762;-80
2024/02/23 09:15:50;;;;;;;10.10;8.60;;;;;;;9.57;100.00;98875.37;106672;1255;100369;-81
2024/02/23 09:18:36;;;;;;;10.80;9.10;;;;;;;9.61;100.00;98879.98;106704;1253;97844;-79
2024/02/23 09:21:22;;;;;;;14.00;9.80;;;;;;;9.65;100.00;98879.77;106724;1253;96465;-80
2024/02/23 09:24:08;;;;;;;12.90;9.90;;;;;;;9.69;100.00;98878.28;106330;1253;97113;-80
2024/02/23 09:26:54;;;;;;;13.20;9.00;;;;;;;9.73;100.00;98880.00;106184;1254;100042;-78
2024/02/23 09:29:40;;;;;;;12.90;9.10;;;;;;;9.78;100.00;98882.52;106163;1257;100252;-80
2024/02/23 09:32:26;;;;;;;11.80;8.50;;;;;;;9.83;100.00;98891.58;106773;1253;97749;-81
2024/02/23 09:35:12;;;;;;;14.60;9.30;;;;;;;9.87;100.00;98895.36;106710;1256;96530;-82
2024/02/23 09:37:57;;;;;;;11.40;8.20;;;;;;;9.92;100.00;98899.38;106699;1257;97759;-80
2024/02/23 09:40:43;;;;;;;11.90;8.60;;;;;;;9.97;100.00;98904.99;106646;1256;99970;-81
2024/02/23 09:43:33;;;;;;;11.70;8.90;;;;;;;10.02;100.00;98904.56;106705;1253;99305;-81
2024/02/23 09:46:18;;;;;;;13.00;8.40;;;;;;;10.08;100.00;98904.61;106556;1254;99008;-81
2024/02/23 09:49:06;;;;;;;12.30;9.50;;;;;;;10.13;100.00;98910.39;106928;1254;96600;-86
2024/02/23 09:51:54;;;;;;;10.00;8.60;;;;;;;10.15;100.00;98912.91;106421;1253;96625;-86
2024/02/23 09:54:41;;;;;;;11.70;9.40;;;;;;;10.17;100.00;98911.20;106693;1254;101756;-86
2024/02/23 09:57:28;;;;;;;11.50;9.40;;;;;;;10.19;100.00;98914.10;106475;1257;100356;-86
2024/02/23 10:00:17;;;;;;;17.20;10.80;;;;;;;10.24;100.00;98921.56;106760;1254;97707;-80
2024/02/23 10:03:04;;;;;;;12.20;8.50;;;;;;;10.28;100.00;98930.79;106638;1253;97375;-83
2024/02/23 10:05:50;;;;;;;9.90;8.30;;;;;;;10.31;100.00;98927.40;106587;1254;96603;-88
2024/02/23 10:08:36;;;;;;;12.90;8.60;;;;;;;10.35;100.00;98930.19;106728;1253;100083;-84
2024/02/23 10:11:23;;;;;;;9.90;8.00;;;;;;;10.38;100.00;98933.80;106766;1254;99980;-79
2024/02/23 10:14:09;;;;;;;10.80;8.20;;;;;;;10.41;100.00;98936.17;106964;1256;98727;-79
2024/02/23 10:16:55;;;;;;;14.70;8.80;;;;;;;10.41;100.00;98938.65;106460;1254;96491;-80
2024/02/23 10:19:41;;;;;;;9.40;7.60;;;;;;;10.41;100.00;98942.55;106954;1254;96810;-80
2024/02/23 10:22:27;;;;;;;10.60;7.20;;;;;;;10.40;100.00;98944.98;106977;1253;100503;-80
2024/02/23 10:25:14;;;;;;;10.50;7.80;;;;;;;10.39;100.00;98951.42;106870;1256;99063;-80
2024/02/23 10:28:01;;;;;;;10.80;7.80;;;;;;;10.40;100.00;98955.79;107193;1254;99002;-80
2024/02/23 10:30:48;;;;;;;9.80;8.20;;;;;;;10.41;100.00;98963.80;107225;1253;96738;-80
2024/02/23 10:33:36;;;;;;;8.70;7.50;;;;;;;10.43;100.00;98966.70;106781;1254;97144;-85
2024/02/23 10:36:28;;;;;;;9.90;7.80;;;;;;;10.43;100.00;98971.42;106439;1254;100065;-88
2024/02/23 10:39:19;;;;;;;10.20;7.70;;;;;;;10.44;100.00;98973.14;106324;1254;99155;-85
2024/02/23 10:42:08;;;;;;;10.60;8.00;;;;;;;10.44;100.00;98975.87;106553;1254;97752;-82
2024/02/23 10:44:58;;;;;;;10.10;8.60;;;;;;;10.43;100.00;98982.80;106778;1253;96581;-90
2024/02/23 10:47:47;;;;;;;;;;;;;;;10.41;100.00;98989.61;106430;1253;96550;-87
2024/02/23 10:50:34;;;;;;;8.10;6.70;;;;;;;10.37;100.00;98994.64;106447;1254;100018;-85
2024/02/23 10:53:20;;;;;;;9.80;7.90;;;;;;;10.37;100.00;98997.40;106665;1256;100060;-83
2024/02/23 10:56:07;;;;;;;8.30;7.20;;;;;;;10.37;100.00;99002.13;106648;1254;97732;-82
2024/02/23 10:58:52;;;;;;;9.30;7.40;;;;;;;10.39;100.00;99005.98;106940;1258;96891;-80
2024/02/23 11:01:40;;;;;;;10.10;7.60;;;;;;;10.39;100.00;99006.77;106810;1254;94865;-80
2024/02/23 11:04:28;;;;;;;10.80;8.90;;;;;;;10.38;100.00;99005.59;106978;1254;100144;-81
2024/02/23 11:07:14;;;;;;;11.90;9.10;;;;;;;10.40;100.00;99006.64;107039;1254;99169;-81
2024/02/23 11:10:00;;;;;;;10.60;8.80;;;;;;;10.41;100.00;99010.95;107120;1256;98963;-81
2024/02/23 11:12:46;;;;;;;12.40;8.70;;;;;;;10.41;100.00;99012.85;106742;1258;96687;-81
2024/02/23 11:15:39;;;;;;;11.90;9.40;;;;;;;10.42;100.00;99014.85;106922;1256;96337;-81
2024/02/23 11:18:28;;;;;;;12.10;9.30;;;;;;;10.43;100.00;99015.84;106911;1256;101251;-81
2024/02/23 11:21:13;;;;;;;12.10;9.50;;;;;;;10.44;100.00;99020.42;106692;1257;100334;-81
2024/02/23 11:24:03;;;;;;;12.00;9.00;;;;;;;10.46;100.00;99028.84;106910;1252;99000;-81
2024/02/23 11:26:49;;;;;;;11.40;8.80;;;;;;;10.47;100.00;99029.98;106900;1254;97199;-81
2024/02/23 11:29:39;;;;;;;11.80;9.20;;;;;;;10.47;100.00;99033.78;107079;1253;97045;-81
2024/02/23 11:32:41;;;;;;;12.60;9.40;;;;;;;10.48;100.00;99040.47;106876;1253;100030;-80
2024/02/23 11:35:27;;;;;;;10.50;9.20;;;;;;;10.50;100.00;99042.71;106340;1256;99236;-82
2024/02/23 11:38:13;;;;;;;10.30;9.00;;;;;;;10.52;100.00;99045.83;106431;1257;97812;-82
2024/02/23 11:41:03;;;;;;;13.20;9.80;;;;;;;10.54;100.00;99051.48;106386;1254;96498;-80
2024/02/23 11:43:50;;;;;;;13.90;8.50;;;;;;;10.54;100.00;99054.41;106646;1253;96523;-80
2024/02/23 11:46:35;;;;;;;11.00;9.60;;;;;;;10.55;100.00;99057.73;106005;1256;100635;-82
2024/02/23 11:49:27;;;;;;;11.90;9.10;;;;;;;10.55;100.00;99062.23;106423;1254;100380;-88
2024/02/23 11:52:13;;;;;;;11.80;8.80;;;;;;;10.54;100.00;99069.23;106797;1256;97817;-86
2024/02/23 11:55:00;;;;;;;10.50;8.00;;;;;;;10.54;100.00;99071.86;106391;1260;96686;-90
2024/02/23 11:57:45;;;;;;;12.90;8.60;;;;;;;10.52;100.00;99079.23;106297;1254;97042;-82
2024/02/23 12:00:31;;;;;;;12.50;9.30;;;;;;;10.51;100.00;99081.62;106436;1256;99970;-82
2024/02/23 12:03:17;;;;;;;11.50;9.30;;;;;;;10.52;100.00;99085.98;106472;1254;99217;-82
2024/02/23 12:06:04;;;;;;;11.40;9.10;;;;;;;10.54;100.00;99088.02;106240;1259;97813;-84
2024/02/23 12:08:50;;;;;;;14.60;9.20;;;;;;;10.55;100.00;99088.80;106494;1253;96606;-82
2024/02/23 12:11:36;;;;;;;14.80;9.50;;;;;;;10.56;100.00;99090.38;106571;1256;97051;-83
2024/02/23 12:14:23;;;;;;;11.20;9.40;;;;;;;10.58;100.00;99098.16;106524;1254;101225;-89
2024/02/23 12:17:09;;;;;;;13.60;10.30;;;;;;;10.60;100.00;99101.05;106587;1258;99155;-84
2024/02/23 12:20:02;;;;;;;10.80;8.70;;;;;;;10.61;100.00;99100.91;106262;1254;99060;-80
2024/02/23 12:22:48;;;;;;;10.50;8.80;;;;;;;10.63;100.00;99107.44;106327;1254;96347;-81
2024/02/23 12:25:33;;;;;;;14.50;9.20;;;;;;;10.65;100.00;99106.02;106333;1254;96526;-81
2024/02/23 12:28:19;;;;;;;13.90;9.80;;;;;;;10.66;100.00;99108.52;106462;1254;101477;-84
2024/02/23 12:31:06;;;;;;;13.40;10.20;;;;;;;10.68;100.00;99114.40;106494;1253;99235;-83
2024/02/23 12:33:52;;;;;;;11.30;9.20;;;;;;;10.68;100.00;99117.77;106608;1253;97551;-80
2024/02/23 12:36:39;;;;;;;12.40;9.50;;;;;;;10.67;100.00;99116.21;106566;1254;96696;-82
2024/02/23 12:39:24;;;;;;;11.70;9.20;;;;;;;10.67;100.00;99118.04;106646;1258;96499;-81
2024/02/23 12:42:11;;;;;;;9.40;8.00;;;;;;;10.67;100.00;99119.43;107097;1256;100759;-87
2024/02/23 12:44:56;;;;;;;11.70;9.60;;;;;;;10.67;100.00;99123.59;106441;1254;99154;-86